Search for airport 
image banner adimage banner adimage banner ad
image banner ad

49CL - El Peco Ranch

Located in Madera, United States

ICAO - 49CL, IATA -

Data provided by Airmate  

General information

Coordinates: N36°54'20" W120°10'39"
Elevation is 213 feet MSL.
Magnetic variation is 15° East
View others Airports in California

Operational data

Special qualification required
Current time UTC:
Current local time:
Weather at : KMAE - Madera Muni ( 11 km )
METAR: KMAE 221353Z AUTO 32005KT 10SM CLR 17/13 A2990 RMK AO2 SLP122 T01670128
View NOTAMs / SUP AIP / TFR affecting this airport [VIEW]
Communications frequencies: [VIEW]

Runways:

RWY identifierQFULength (ft)Width (ft)SurfaceLDA (ft)
NW300050OTHER
SE300050OTHER

Airport contact information

Address: Madera United States

Satellite view of 49CL